Wind From: 11-12-2017 06:00 Until: 12-12-2017 06:00 warning for: Wind Level: Orange info button

Power and phone distribution networks may be disrupted for relatively long periods., Roofs and chimneys can be damaged. , Tree branches may break. , Vehicles can be deported. , Traffic may be disrupted, particularly on secondary roads in forest areas. Limit your trips. , Limit your speed in highway driving, especially if you drive a vehicle or hitch sensitive to wind. , Do not go for walks in forests or along the coast., In town, be vigilant against possible falling objects., Do not work on roofs and do not touch any electrical line fallen on the ground., Store or secure sensitive objects to wind or likely to be damaged., Always install power generators outside buildings. 


Meteo18 Weather Cam more information Meteo18 Weather Cam


Thunder radar more information blitzortung!


Rain radar more information rain snow radar


Visit our other weather sites:

Template documentation
and downloads

And another site



Weather Underground History page Text

Daily Summary for October 23, 2016 Units:  Metric    English   Both
« Previous Day
Next Day »
Daily Weekly Monthly Yearly Custom
  High: Low: Average:
Temperature: 13.3 °C 3.5 °C 8.8 °C
Dew Point: 12.3 °C 2.8 °C 7.7 °C
Humidity: 96 % 86 % 93 %
Wind Speed: 9.7 km/h 0.0 km/h 2.1 km/h
Wind Gust: 14.5 km/h - -
Wind:- - ENE
Pressure: 1011.7 hPa 1006.0 hPa -
Precipitation: 0.8 mm    
Historical Graphs
 
 
Tabular Data for October 23, 2016
Time Temperature Dew Point Pressure Wind Wind Speed Wind Gust Humidity Rainfall Rate (Hourly)
00:02 6.4 °C 5.5 °C 1011.7 hPa NNE 1.6 km/h 6.4 km/h 94 % 0.0 mm
00:12 6.4 °C 5.4 °C 1011.7 hPa NE 4.8 km/h 6.4 km/h 93 % 0.0 mm
00:17 6.5 °C 5.4 °C 1011.7 hPa NNE 1.6 km/h 9.7 km/h 93 % 0.0 mm
00:22 6.4 °C 5.4 °C 1011.4 hPa NNE 4.8 km/h 9.7 km/h 93 % 0.0 mm
00:37 6.6 °C 5.2 °C 1011.4 hPa NNE 8.0 km/h 9.7 km/h 91 % 0.0 mm
00:42 6.7 °C 5.3 °C 1011.4 hPa NE 4.8 km/h 14.5 km/h 91 % 0.0 mm
00:47 6.7 °C 5.3 °C 1011.4 hPa NNE 6.4 km/h 14.5 km/h 91 % 0.0 mm
00:52 6.6 °C 5.1 °C 1011.4 hPa NE 6.4 km/h 11.3 km/h 90 % 0.0 mm
01:02 6.5 °C 5.0 °C 1011.1 hPa NE 8.0 km/h 11.3 km/h 90 % 0.0 mm
01:12 6.6 °C 5.1 °C 1011.1 hPa NE 8.0 km/h 11.3 km/h 90 % 0.0 mm
01:17 6.6 °C 5.1 °C 1011.1 hPa NNE 4.8 km/h 12.9 km/h 90 % 0.0 mm
01:27 6.4 °C 4.9 °C 1011.1 hPa NE 6.4 km/h 12.9 km/h 90 % 0.0 mm
01:32 6.4 °C 4.9 °C 1011.1 hPa NNE 9.7 km/h 12.9 km/h 90 % 0.0 mm
01:42 6.3 °C 4.9 °C 1010.7 hPa NE 6.4 km/h 14.5 km/h 91 % 0.0 mm
01:47 6.2 °C 4.7 °C 1010.7 hPa NE 1.6 km/h 11.3 km/h 90 % 0.0 mm
01:57 5.9 °C 4.5 °C 1010.7 hPa North 1.6 km/h 9.7 km/h 91 % 0.0 mm
02:02 5.8 °C 4.4 °C 1010.7 hPa Calm   9.7 km/h 91 % 0.0 mm
02:12 5.6 °C 4.2 °C 1010.7 hPa NNE 4.8 km/h 4.8 km/h 91 % 0.0 mm
02:17 5.6 °C 4.4 °C 1010.7 hPa NE 3.2 km/h 8.0 km/h 92 % 0.0 mm
02:22 5.7 °C 4.5 °C 1010.4 hPa ENE 6.4 km/h 8.0 km/h 92 % 0.0 mm
02:32 6.0 °C 4.6 °C 1010.4 hPa NE 9.7 km/h 14.5 km/h 91 % 0.0 mm
02:42 6.0 °C 4.5 °C 1010.4 hPa NE 6.4 km/h 14.5 km/h 90 % 0.0 mm
02:47 6.0 °C 4.5 °C 1010.4 hPa NNE 3.2 km/h 12.9 km/h 90 % 0.0 mm
03:02 5.8 °C 4.4 °C 1010.4 hPa NE 4.8 km/h 12.9 km/h 91 % 0.0 mm
03:12 5.6 °C 4.2 °C 1010.0 hPa NNE 3.2 km/h 14.5 km/h 91 % 0.0 mm
03:17 5.4 °C 4.0 °C 1010.0 hPa NNE 1.6 km/h 9.7 km/h 91 % 0.0 mm
03:22 5.2 °C 3.9 °C 1010.0 hPa North 3.2 km/h 9.7 km/h 91 % 0.0 mm
03:27 5.0 °C 3.7 °C 1010.0 hPa Calm   8.0 km/h 91 % 0.0 mm
03:32 4.8 °C 3.6 °C 1010.0 hPa NNE 1.6 km/h 8.0 km/h 92 % 0.0 mm
03:37 4.7 °C 3.5 °C 1010.0 hPa Calm   3.2 km/h 92 % 0.0 mm
03:42 4.6 °C 3.4 °C 1010.0 hPa Calm   3.2 km/h 92 % 0.0 mm
03:47 4.4 °C 3.4 °C 1010.0 hPa NNE 3.2 km/h 3.2 km/h 93 % 0.0 mm
03:52 4.4 °C 3.4 °C 1010.0 hPa North 3.2 km/h 3.2 km/h 93 % 0.0 mm
04:02 4.4 °C 3.5 °C 1009.7 hPa NNE 3.2 km/h 6.4 km/h 94 % 0.0 mm
04:12 4.4 °C 3.5 °C 1009.4 hPa NNE 1.6 km/h 6.4 km/h 94 % 0.0 mm
04:17 4.3 °C 3.4 °C 1009.4 hPa NNE 1.6 km/h 4.8 km/h 94 % 0.3 mm
04:22 4.3 °C 3.4 °C 1009.4 hPa North 1.6 km/h 4.8 km/h 94 % 0.3 mm
04:27 4.3 °C 3.4 °C 1009.4 hPa North 1.6 km/h 4.8 km/h 94 % 0.3 mm
04:32 4.3 °C 3.4 °C 1009.4 hPa NNE 1.6 km/h 4.8 km/h 94 % 0.3 mm
04:37 4.4 °C 3.5 °C 1009.4 hPa NNE 3.2 km/h 6.4 km/h 94 % 0.3 mm
04:42 4.4 °C 3.5 °C 1009.0 hPa Calm   6.4 km/h 94 % 0.3 mm
04:47 4.4 °C 3.5 °C 1009.0 hPa North 1.6 km/h 6.4 km/h 94 % 0.3 mm
04:57 4.2 °C 3.3 °C 1009.0 hPa Calm   4.8 km/h 94 % 0.3 mm
05:02 4.1 °C 3.2 °C 1009.0 hPa Calm   4.8 km/h 94 % 0.3 mm
05:07 4.0 °C 3.1 °C 1009.0 hPa Calm   1.6 km/h 94 % 0.3 mm
05:12 3.9 °C 3.0 °C 1008.7 hPa NNE 4.8 km/h 4.8 km/h 94 % 0.3 mm
05:17 3.9 °C 3.0 °C 1008.7 hPa NNE 1.6 km/h 4.8 km/h 94 % 0.0 mm
05:22 3.8 °C 2.9 °C 1008.7 hPa Calm   4.8 km/h 94 % 0.0 mm
05:32 3.8 °C 3.1 °C 1008.7 hPa Calm   4.8 km/h 95 % 0.0 mm
05:37 3.8 °C 3.1 °C 1008.7 hPa Calm   3.2 km/h 95 % 0.0 mm
05:42 3.8 °C 3.1 °C 1008.7 hPa NNW 1.6 km/h 3.2 km/h 95 % 0.0 mm
05:47 3.8 °C 3.1 °C 1008.7 hPa Calm   1.6 km/h 95 % 0.0 mm
06:02 3.7 °C 3.0 °C 1008.7 hPa NNE 3.2 km/h 4.8 km/h 95 % 0.0 mm
06:12 3.6 °C 2.9 °C 1008.4 hPa Calm   4.8 km/h 95 % 0.0 mm
06:17 3.7 °C 3.0 °C 1008.7 hPa Calm   4.8 km/h 95 % 0.0 mm
06:22 3.7 °C 3.0 °C 1008.7 hPa Calm   4.8 km/h 95 % 0.0 mm
06:27 3.7 °C 3.0 °C 1008.7 hPa Calm   3.2 km/h 95 % 0.0 mm
06:32 3.8 °C 3.1 °C 1008.4 hPa North 1.6 km/h 3.2 km/h 95 % 0.0 mm
06:37 3.8 °C 3.1 °C 1008.7 hPa Calm   3.2 km/h 95 % 0.0 mm
06:42 3.8 °C 3.1 °C 1008.7 hPa Calm   1.6 km/h 95 % 0.0 mm
06:47 3.8 °C 3.1 °C 1008.4 hPa North 1.6 km/h 1.6 km/h 95 % 0.0 mm
06:52 3.7 °C 3.0 °C 1008.4 hPa North 1.6 km/h 3.2 km/h 95 % 0.0 mm
07:02 3.6 °C 2.9 °C 1008.4 hPa Calm   3.2 km/h 95 % 0.0 mm
07:12 3.5 °C 2.8 °C 1008.4 hPa Calm   3.2 km/h 95 % 0.0 mm
07:22 3.6 °C 2.9 °C 1008.4 hPa NW 1.6 km/h 1.6 km/h 95 % 0.0 mm
07:32 3.6 °C 2.9 °C 1008.4 hPa Calm   1.6 km/h 95 % 0.0 mm
07:37 3.6 °C 2.9 °C 1008.4 hPa Calm   1.6 km/h 95 % 0.0 mm
07:42 3.5 °C 2.8 °C 1008.4 hPa Calm   1.6 km/h 95 % 0.0 mm
07:47 3.5 °C 2.8 °C 1008.4 hPa Calm   1.6 km/h 95 % 0.0 mm
07:52 3.6 °C 3.0 °C 1008.4 hPa Calm   1.6 km/h 96 % 0.0 mm
08:02 3.7 °C 3.1 °C 1008.4 hPa North 1.6 km/h 1.6 km/h 96 % 0.0 mm
08:12 3.6 °C 2.9 °C 1008.4 hPa Calm   3.2 km/h 95 % 0.0 mm
08:17 3.7 °C 3.1 °C 1008.4 hPa Calm   3.2 km/h 96 % 0.0 mm
08:22 3.8 °C 3.2 °C 1008.4 hPa Calm   3.2 km/h 96 % 0.0 mm
08:32 4.0 °C 3.4 °C 1008.4 hPa NNE 4.8 km/h 4.8 km/h 96 % 0.0 mm
08:37 4.0 °C 3.4 °C 1008.0 hPa Calm   6.4 km/h 96 % 0.0 mm
08:42 4.0 °C 3.4 °C 1008.4 hPa NNE 1.6 km/h 6.4 km/h 96 % 0.0 mm
08:47 4.1 °C 3.4 °C 1008.4 hPa NE 1.6 km/h 6.4 km/h 95 % 0.0 mm
08:52 4.1 °C 3.4 °C 1008.4 hPa NNE 1.6 km/h 6.4 km/h 95 % 0.0 mm
09:07 4.2 °C 3.5 °C 1008.0 hPa NE 4.8 km/h 4.8 km/h 95 % 0.0 mm
09:12 4.4 °C 3.7 °C 1008.4 hPa North 3.2 km/h 4.8 km/h 95 % 0.0 mm
09:17 4.5 °C 3.8 °C 1008.4 hPa North 1.6 km/h 8.0 km/h 95 % 0.0 mm
09:22 4.8 °C 4.1 °C 1008.4 hPa NNE 4.8 km/h 8.0 km/h 95 % 0.0 mm
09:32 5.2 °C 4.3 °C 1008.4 hPa NE 4.8 km/h 8.0 km/h 94 % 0.0 mm
09:37 5.3 °C 4.4 °C 1008.4 hPa North 3.2 km/h 8.0 km/h 94 % 0.0 mm
09:42 5.4 °C 4.5 °C 1008.4 hPa NE 6.4 km/h 8.0 km/h 94 % 0.0 mm
09:52 5.8 °C 4.9 °C 1008.0 hPa North 1.6 km/h 8.0 km/h 94 % 0.0 mm
10:02 6.2 °C 5.2 °C 1008.0 hPa Calm   6.4 km/h 93 % 0.0 mm
10:07 6.3 °C 5.3 °C 1007.7 hPa NNE 1.6 km/h 6.4 km/h 93 % 0.0 mm
10:12 6.4 °C 5.4 °C 1007.7 hPa NNE 3.2 km/h 6.4 km/h 93 % 0.0 mm
10:22 6.8 °C 5.7 °C 1007.7 hPa NNE 1.6 km/h 6.4 km/h 93 % 0.0 mm
10:32 7.3 °C 6.1 °C 1007.7 hPa NE 6.4 km/h 6.4 km/h 92 % 0.0 mm
10:37 7.5 °C 6.1 °C 1007.7 hPa Calm   8.0 km/h 91 % 0.0 mm
10:42 7.7 °C 6.5 °C 1007.7 hPa NNE 1.6 km/h 8.0 km/h 92 % 0.0 mm
10:52 8.3 °C 6.9 °C 1007.7 hPa NE 3.2 km/h 8.0 km/h 91 % 0.0 mm
11:02 8.5 °C 7.0 °C 1007.7 hPa ENE 1.6 km/h 4.8 km/h 90 % 0.0 mm
11:12 8.7 °C 7.0 °C 1008.0 hPa ENE 3.2 km/h 8.0 km/h 89 % 0.0 mm
11:17 8.8 °C 7.2 °C 1008.0 hPa NE 1.6 km/h 6.4 km/h 90 % 0.0 mm
11:27 8.9 °C 7.2 °C 1007.7 hPa NNE 6.4 km/h 6.4 km/h 89 % 0.0 mm
11:32 9.0 °C 7.3 °C 1007.7 hPa NE 3.2 km/h 6.4 km/h 89 % 0.0 mm
11:37 9.0 °C 7.3 °C 1007.7 hPa NE 1.6 km/h 9.7 km/h 89 % 0.0 mm
11:47 9.1 °C 7.2 °C 1007.7 hPa NE 3.2 km/h 8.0 km/h 88 % 0.0 mm
11:52 9.1 °C 7.4 °C 1007.7 hPa ENE 4.8 km/h 8.0 km/h 89 % 0.0 mm
12:02 9.2 °C 7.5 °C 1007.7 hPa North 1.6 km/h 6.4 km/h 89 % 0.0 mm
12:12 9.3 °C 7.7 °C 1007.3 hPa NNE 3.2 km/h 8.0 km/h 90 % 0.0 mm
12:18 9.4 °C 7.7 °C 1007.3 hPa NNW 3.2 km/h 8.0 km/h 89 % 0.0 mm
12:27 9.8 °C 8.1 °C 1007.3 hPa ENE 3.2 km/h 9.7 km/h 89 % 0.0 mm
12:32 9.9 °C 8.0 °C 1007.3 hPa NE 3.2 km/h 9.7 km/h 88 % 0.0 mm
12:37 10.0 °C 8.1 °C 1007.3 hPa ENE 3.2 km/h 9.7 km/h 88 % 0.0 mm
12:42 10.2 °C 8.3 °C 1007.3 hPa ENE 4.8 km/h 9.7 km/h 88 % 0.0 mm
12:52 10.4 °C 8.5 °C 1007.3 hPa NE 4.8 km/h 9.7 km/h 88 % 0.0 mm
12:57 10.6 °C 8.5 °C 1007.3 hPa NE 3.2 km/h 9.7 km/h 87 % 0.0 mm
13:02 10.6 °C 8.5 °C 1007.3 hPa NNE 1.6 km/h 9.7 km/h 87 % 0.0 mm
13:12 10.8 °C 8.7 °C 1007.3 hPa ENE 1.6 km/h 9.7 km/h 87 % 0.0 mm
13:22 11.0 °C 8.9 °C 1007.0 hPa NE 1.6 km/h 8.0 km/h 87 % 0.0 mm
13:32 11.2 °C 8.9 °C 1006.7 hPa NE 3.2 km/h 9.7 km/h 86 % 0.0 mm
13:42 11.4 °C 9.3 °C 1006.7 hPa ENE 4.8 km/h 12.9 km/h 87 % 0.0 mm
13:52 11.6 °C 9.5 °C 1006.7 hPa East 3.2 km/h 11.3 km/h 87 % 0.0 mm
13:57 11.7 °C 9.6 °C 1006.7 hPa Calm   9.7 km/h 87 % 0.0 mm
14:07 12.0 °C 9.9 °C 1006.7 hPa ENE 3.2 km/h 9.7 km/h 87 % 0.0 mm
14:12 12.1 °C 10.0 °C 1006.7 hPa NE 3.2 km/h 9.7 km/h 87 % 0.0 mm
14:17 12.3 °C 10.2 °C 1006.3 hPa NE 4.8 km/h 8.0 km/h 87 % 0.0 mm
14:22 12.4 °C 10.1 °C 1006.7 hPa NE 3.2 km/h 8.0 km/h 86 % 0.0 mm
14:32 12.4 °C 10.1 °C 1006.7 hPa NE 1.6 km/h 8.0 km/h 86 % 0.0 mm
14:37 12.5 °C 10.4 °C 1006.7 hPa Calm   4.8 km/h 87 % 0.0 mm
14:42 12.5 °C 10.4 °C 1006.7 hPa Calm   4.8 km/h 87 % 0.0 mm
14:47 12.5 °C 10.4 °C 1006.7 hPa NNE 1.6 km/h 3.2 km/h 87 % 0.0 mm
14:57 12.4 °C 10.5 °C 1006.7 hPa NE 1.6 km/h 4.8 km/h 88 % 0.3 mm
15:02 12.4 °C 10.6 °C 1006.7 hPa NNE 1.6 km/h 4.8 km/h 89 % 0.3 mm
15:07 12.4 °C 10.6 °C 1006.7 hPa NE 6.4 km/h 6.4 km/h 89 % 0.3 mm
15:17 12.4 °C 10.8 °C 1006.3 hPa ENE 1.6 km/h 6.4 km/h 90 % 0.5 mm
15:27 12.3 °C 10.7 °C 1006.3 hPa NNE 1.6 km/h 8.0 km/h 90 % 0.5 mm
15:32 12.4 °C 11.0 °C 1006.3 hPa Calm   8.0 km/h 91 % 0.5 mm
15:42 12.5 °C 11.1 °C 1006.3 hPa NNE 4.8 km/h 6.4 km/h 91 % 0.5 mm
15:47 12.6 °C 11.2 °C 1006.3 hPa NE 3.2 km/h 8.0 km/h 91 % 0.5 mm
15:52 12.7 °C 11.3 °C 1006.3 hPa NE 3.2 km/h 8.0 km/h 91 % 0.5 mm
15:57 12.7 °C 11.3 °C 1006.0 hPa NNE 4.8 km/h 8.0 km/h 91 % 0.3 mm
16:02 12.8 °C 11.4 °C 1006.0 hPa ENE 1.6 km/h 8.0 km/h 91 % 0.3 mm
16:12 13.0 °C 11.6 °C 1006.3 hPa NE 3.2 km/h 8.0 km/h 91 % 0.3 mm
16:17 13.1 °C 11.5 °C 1006.3 hPa NE 1.6 km/h 6.4 km/h 90 % 0.0 mm
16:22 13.1 °C 11.5 °C 1006.3 hPa NNE 3.2 km/h 6.4 km/h 90 % 0.0 mm
16:27 13.2 °C 11.6 °C 1006.3 hPa NE 3.2 km/h 6.4 km/h 90 % 0.0 mm
16:32 13.2 °C 11.6 °C 1006.3 hPa NE 4.8 km/h 6.4 km/h 90 % 0.0 mm
16:42 13.2 °C 11.6 °C 1006.3 hPa ENE 4.8 km/h 6.4 km/h 90 % 0.0 mm
16:47 13.3 °C 11.7 °C 1006.3 hPa NE 1.6 km/h 8.0 km/h 90 % 0.0 mm
16:57 13.2 °C 11.8 °C 1006.3 hPa ENE 4.8 km/h 6.4 km/h 91 % 0.0 mm
17:02 13.2 °C 11.8 °C 1006.3 hPa NNE 1.6 km/h 6.4 km/h 91 % 0.0 mm
17:07 13.2 °C 11.8 °C 1006.3 hPa NE 3.2 km/h 6.4 km/h 91 % 0.0 mm
17:12 13.2 °C 11.8 °C 1006.3 hPa ENE 1.6 km/h 6.4 km/h 91 % 0.0 mm
17:17 13.2 °C 11.8 °C 1006.3 hPa NE 3.2 km/h 8.0 km/h 91 % 0.0 mm
17:22 13.2 °C 11.8 °C 1006.3 hPa NE 3.2 km/h 8.0 km/h 91 % 0.0 mm
17:27 13.1 °C 11.8 °C 1006.3 hPa Calm   8.0 km/h 92 % 0.0 mm
17:32 13.1 °C 11.8 °C 1006.3 hPa NNE 6.4 km/h 8.0 km/h 92 % 0.0 mm
17:37 13.0 °C 11.7 °C 1006.3 hPa NNE 3.2 km/h 8.0 km/h 92 % 0.0 mm
17:42 13.0 °C 11.7 °C 1006.3 hPa NNE 4.8 km/h 8.0 km/h 92 % 0.0 mm
17:47 12.9 °C 11.6 °C 1006.3 hPa NNE 1.6 km/h 6.4 km/h 92 % 0.0 mm
17:52 12.9 °C 11.6 °C 1006.3 hPa Calm   6.4 km/h 92 % 0.0 mm
17:57 12.9 °C 11.6 °C 1006.3 hPa NE 3.2 km/h 6.4 km/h 92 % 0.0 mm
18:02 12.9 °C 11.6 °C 1006.3 hPa North 1.6 km/h 6.4 km/h 92 % 0.0 mm
18:12 12.8 °C 11.7 °C 1006.3 hPa Calm   6.4 km/h 93 % 0.0 mm
18:17 12.8 °C 11.7 °C 1006.7 hPa Calm   4.8 km/h 93 % 0.0 mm
18:22 12.7 °C 11.6 °C 1006.3 hPa Calm     93 % 0.0 mm
18:32 12.6 °C 11.5 °C 1006.7 hPa Calm     93 % 0.0 mm
18:42 12.6 °C 11.5 °C 1006.7 hPa Calm     93 % 0.0 mm
18:47 12.5 °C 11.4 °C 1006.7 hPa Calm     93 % 0.0 mm
18:57 12.4 °C 11.5 °C 1006.7 hPa Calm     94 % 0.0 mm
19:02 12.4 °C 11.5 °C 1006.7 hPa Calm     94 % 0.0 mm
19:12 12.3 °C 11.4 °C 1006.7 hPa Calm     94 % 0.0 mm
19:17 12.3 °C 11.4 °C 1006.7 hPa Calm     94 % 0.3 mm
19:22 12.3 °C 11.4 °C 1006.7 hPa Calm     94 % 0.3 mm
19:32 12.2 °C 11.3 °C 1007.0 hPa Calm   1.6 km/h 94 % 0.3 mm
19:37 12.2 °C 11.3 °C 1007.0 hPa Calm   1.6 km/h 94 % 0.3 mm
19:42 12.2 °C 11.3 °C 1007.0 hPa Calm   1.6 km/h 94 % 0.3 mm
19:47 12.1 °C 11.2 °C 1007.0 hPa Calm   1.6 km/h 94 % 0.3 mm
19:52 12.1 °C 11.3 °C 1007.0 hPa Calm   1.6 km/h 95 % 0.3 mm
19:57 12.1 °C 11.3 °C 1007.0 hPa Calm   1.6 km/h 95 % 0.3 mm
20:02 12.1 °C 11.3 °C 1007.0 hPa Calm   1.6 km/h 95 % 0.3 mm
20:12 12.0 °C 11.2 °C 1007.0 hPa Calm     95 % 0.3 mm
20:22 11.9 °C 11.1 °C 1007.0 hPa Calm   3.2 km/h 95 % 0.0 mm
20:27 11.9 °C 11.1 °C 1007.3 hPa Calm   1.6 km/h 95 % 0.0 mm
20:32 11.9 °C 11.1 °C 1007.3 hPa Calm   1.6 km/h 95 % 0.0 mm
20:37 11.9 °C 11.1 °C 1007.3 hPa Calm   3.2 km/h 95 % 0.0 mm
20:47 11.8 °C 11.0 °C 1007.3 hPa WNW 1.6 km/h 3.2 km/h 95 % 0.0 mm
20:52 11.8 °C 11.2 °C 1007.3 hPa Calm   3.2 km/h 96 % 0.0 mm
21:02 11.8 °C 11.2 °C 1007.7 hPa Calm   3.2 km/h 96 % 0.0 mm
21:12 11.9 °C 11.3 °C 1007.7 hPa Calm     96 % 0.0 mm
21:22 11.9 °C 11.3 °C 1007.7 hPa Calm     96 % 0.0 mm
21:32 11.9 °C 11.3 °C 1008.0 hPa Calm     96 % 0.0 mm
21:42 12.1 °C 11.3 °C 1008.0 hPa WNW 1.6 km/h   95 % 0.0 mm
21:52 12.3 °C 11.7 °C 1008.0 hPa Calm   4.8 km/h 96 % 0.0 mm
22:02 12.4 °C 11.8 °C 1008.4 hPa West 1.6 km/h 3.2 km/h 96 % 0.0 mm
22:12 12.6 °C 12.0 °C 1008.4 hPa North 1.6 km/h 3.2 km/h 96 % 0.0 mm
22:17 12.6 °C 11.8 °C 1008.4 hPa NW 1.6 km/h 3.2 km/h 95 % 0.0 mm
22:22 12.6 °C 11.8 °C 1008.4 hPa Calm   3.2 km/h 95 % 0.0 mm
22:27 12.8 °C 12.2 °C 1008.4 hPa Calm   3.2 km/h 96 % 0.0 mm
22:37 12.7 °C 11.9 °C 1008.4 hPa Calm   1.6 km/h 95 % 0.0 mm
22:42 12.8 °C 12.2 °C 1008.4 hPa NW 1.6 km/h 1.6 km/h 96 % 0.0 mm
22:47 12.9 °C 12.1 °C 1008.4 hPa Calm   1.6 km/h 95 % 0.0 mm
22:52 12.9 °C 12.1 °C 1008.7 hPa North 1.6 km/h 1.6 km/h 95 % 0.0 mm
22:57 12.9 °C 12.1 °C 1008.4 hPa North 1.6 km/h 1.6 km/h 95 % 0.0 mm
23:02 12.9 °C 12.1 °C 1008.4 hPa NNE 3.2 km/h 3.2 km/h 95 % 0.0 mm
23:07 12.8 °C 12.0 °C 1008.7 hPa Calm   3.2 km/h 95 % 0.0 mm
23:17 12.9 °C 12.1 °C 1008.7 hPa North 1.6 km/h 3.2 km/h 95 % 0.0 mm
23:22 12.9 °C 12.1 °C 1008.7 hPa NNW 1.6 km/h 3.2 km/h 95 % 0.0 mm
23:27 12.8 °C 12.0 °C 1008.7 hPa WNW 1.6 km/h 1.6 km/h 95 % 0.0 mm
23:32 12.9 °C 12.3 °C 1008.7 hPa NW 1.6 km/h 1.6 km/h 96 % 0.0 mm
23:37 12.9 °C 12.3 °C 1008.4 hPa North 1.6 km/h 3.2 km/h 96 % 0.0 mm
23:42 12.9 °C 12.1 °C 1008.4 hPa NNE 3.2 km/h 3.2 km/h 95 % 0.0 mm
23:47 12.8 °C 12.0 °C 1008.7 hPa Calm   3.2 km/h 95 % 0.0 mm
23:52 12.8 °C 12.0 °C 1008.7 hPa Calm   3.2 km/h 95 % 0.0 mm
23:57 12.7 °C 12.1 °C 1008.7 hPa Calm   3.2 km/h 96 % 0.0 mm
Meteo18
Compliments of Weather Underground - 4 mb

Script developed by  Jim McMurry - jmcmurry@mwt.net Adapted for the template by  Wim van der Kuil - Leuven-Template.eu

You find our weather info also at:

European Weather Network

Weather Underground

Equipment we use:

Weather-station
Davis Vue

Weather-program
Meteohub

Weather-server
Raspberry PI 2 B+

Provider
1 and 1

Davis Vue

Meteohub

Raspberry PI 2 B+

1 and 1